sensor_id;sensor_type;location;lat;lon;timestamp;P1;durP1;ratioP1;P2;durP2;ratioP2
7027;SDS011;3555;53.248;10.336;2023-01-04T00:02:11;3.13;;;1.80;;
7027;SDS011;3555;53.248;10.336;2023-01-04T00:04:37;3.97;;;1.97;;
7027;SDS011;3555;53.248;10.336;2023-01-04T00:07:04;4.17;;;1.97;;
7027;SDS011;3555;53.248;10.336;2023-01-04T00:09:31;4.00;;;2.30;;
7027;SDS011;3555;53.248;10.336;2023-01-04T00:11:58;3.47;;;1.93;;
7027;SDS011;3555;53.248;10.336;2023-01-04T00:14:26;4.57;;;2.00;;
7027;SDS011;3555;53.248;10.336;2023-01-04T00:16:53;4.33;;;2.10;;
7027;SDS011;3555;53.248;10.336;2023-01-04T00:19:20;2.90;;;1.87;;
7027;SDS011;3555;53.248;10.336;2023-01-04T00:21:47;5.33;;;1.90;;
7027;SDS011;3555;53.248;10.336;2023-01-04T00:24:13;5.13;;;2.00;;
7027;SDS011;3555;53.248;10.336;2023-01-04T00:26:40;3.40;;;2.00;;
7027;SDS011;3555;53.248;10.336;2023-01-04T00:29:08;5.40;;;2.20;;
7027;SDS011;3555;53.248;10.336;2023-01-04T00:31:39;5.73;;;2.07;;
7027;SDS011;3555;53.248;10.336;2023-01-04T00:34:06;2.97;;;1.90;;
7027;SDS011;3555;53.248;10.336;2023-01-04T00:36:32;2.83;;;1.80;;
7027;SDS011;3555;53.248;10.336;2023-01-04T00:39:00;3.13;;;2.07;;
7027;SDS011;3555;53.248;10.336;2023-01-04T00:41:37;3.10;;;1.70;;
7027;SDS011;3555;53.248;10.336;2023-01-04T00:44:05;4.80;;;2.03;;
7027;SDS011;3555;53.248;10.336;2023-01-04T00:46:33;2.93;;;1.40;;
7027;SDS011;3555;53.248;10.336;2023-01-04T00:49:03;2.67;;;1.60;;
7027;SDS011;3555;53.248;10.336;2023-01-04T00:51:31;3.77;;;1.90;;
7027;SDS011;3555;53.248;10.336;2023-01-04T00:53:58;2.57;;;1.60;;
7027;SDS011;3555;53.248;10.336;2023-01-04T00:56:26;4.30;;;1.73;;
7027;SDS011;3555;53.248;10.336;2023-01-04T00:58:53;4.40;;;2.03;;
7027;SDS011;3555;53.248;10.336;2023-01-04T01:01:20;3.70;;;1.60;;
7027;SDS011;3555;53.248;10.336;2023-01-04T01:03:48;4.90;;;2.20;;
7027;SDS011;3555;53.248;10.336;2023-01-04T01:06:20;2.57;;;1.70;;
7027;SDS011;3555;53.248;10.336;2023-01-04T01:08:48;4.40;;;1.70;;
7027;SDS011;3555;53.248;10.336;2023-01-04T01:11:15;4.10;;;1.80;;
7027;SDS011;3555;53.248;10.336;2023-01-04T01:13:43;2.67;;;1.90;;
7027;SDS011;3555;53.248;10.336;2023-01-04T01:16:10;4.53;;;1.97;;
7027;SDS011;3555;53.248;10.336;2023-01-04T01:18:39;4.23;;;1.90;;
7027;SDS011;3555;53.248;10.336;2023-01-04T01:21:08;3.30;;;1.67;;
7027;SDS011;3555;53.248;10.336;2023-01-04T01:23:38;5.53;;;2.00;;
7027;SDS011;3555;53.248;10.336;2023-01-04T01:26:06;4.70;;;2.00;;
7027;SDS011;3555;53.248;10.336;2023-01-04T01:28:36;3.40;;;1.90;;
7027;SDS011;3555;53.248;10.336;2023-01-04T01:31:06;4.37;;;1.97;;
7027;SDS011;3555;53.248;10.336;2023-01-04T01:33:34;2.33;;;1.50;;
7027;SDS011;3555;53.248;10.336;2023-01-04T01:36:01;3.37;;;1.80;;
7027;SDS011;3555;53.248;10.336;2023-01-04T01:38:29;3.87;;;1.60;;
7027;SDS011;3555;53.248;10.336;2023-01-04T01:40:57;4.80;;;1.83;;
7027;SDS011;3555;53.248;10.336;2023-01-04T01:46:14;7.03;;;2.13;;
7027;SDS011;3555;53.248;10.336;2023-01-04T01:48:43;3.00;;;1.60;;
7027;SDS011;3555;53.248;10.336;2023-01-04T01:51:11;5.73;;;2.53;;
7027;SDS011;3555;53.248;10.336;2023-01-04T01:53:41;5.67;;;2.10;;
7027;SDS011;3555;53.248;10.336;2023-01-04T01:56:13;3.60;;;1.80;;
7027;SDS011;3555;53.248;10.336;2023-01-04T01:58:43;6.97;;;1.90;;
7027;SDS011;3555;53.248;10.336;2023-01-04T02:01:15;4.93;;;2.17;;
7027;SDS011;3555;53.248;10.336;2023-01-04T02:03:42;4.70;;;2.10;;
7027;SDS011;3555;53.248;10.336;2023-01-04T02:06:09;3.93;;;1.73;;
7027;SDS011;3555;53.248;10.336;2023-01-04T02:08:39;6.43;;;1.73;;
7027;SDS011;3555;53.248;10.336;2023-01-04T02:11:07;4.83;;;1.80;;
7027;SDS011;3555;53.248;10.336;2023-01-04T02:13:36;3.50;;;1.40;;
7027;SDS011;3555;53.248;10.336;2023-01-04T02:16:25;5.33;;;1.70;;
7027;SDS011;3555;53.248;10.336;2023-01-04T02:19:01;3.80;;;1.57;;
7027;SDS011;3555;53.248;10.336;2023-01-04T02:21:44;4.60;;;1.77;;
7027;SDS011;3555;53.248;10.336;2023-01-04T02:24:31;4.27;;;1.97;;
7027;SDS011;3555;53.248;10.336;2023-01-04T02:33:09;7.13;;;2.10;;
7027;SDS011;3555;53.248;10.336;2023-01-04T02:35:50;3.57;;;1.90;;
7027;SDS011;3555;53.248;10.336;2023-01-04T02:38:24;4.90;;;1.60;;
7027;SDS011;3555;53.248;10.336;2023-01-04T02:41:00;3.97;;;1.57;;
7027;SDS011;3555;53.248;10.336;2023-01-04T02:43:31;4.57;;;1.93;;
7027;SDS011;3555;53.248;10.336;2023-01-04T02:46:23;3.07;;;1.60;;
7027;SDS011;3555;53.248;10.336;2023-01-04T02:48:58;3.03;;;1.40;;
7027;SDS011;3555;53.248;10.336;2023-01-04T02:51:43;5.37;;;1.37;;
7027;SDS011;3555;53.248;10.336;2023-01-04T02:54:11;4.33;;;1.60;;
7027;SDS011;3555;53.248;10.336;2023-01-04T02:59:43;5.17;;;1.77;;
7027;SDS011;3555;53.248;10.336;2023-01-04T03:02:23;5.47;;;1.50;;
7027;SDS011;3555;53.248;10.336;2023-01-04T03:05:23;2.67;;;1.43;;
7027;SDS011;3555;53.248;10.336;2023-01-04T03:08:15;3.30;;;1.80;;
7027;SDS011;3555;53.248;10.336;2023-01-04T03:10:50;2.80;;;1.57;;
7027;SDS011;3555;53.248;10.336;2023-01-04T03:13:24;2.20;;;1.53;;
7027;SDS011;3555;53.248;10.336;2023-01-04T03:15:54;3.83;;;1.57;;
7027;SDS011;3555;53.248;10.336;2023-01-04T03:18:25;3.37;;;1.87;;
7027;SDS011;3555;53.248;10.336;2023-01-04T03:20:56;5.13;;;2.07;;
7027;SDS011;3555;53.248;10.336;2023-01-04T03:23:26;4.20;;;2.00;;
7027;SDS011;3555;53.248;10.336;2023-01-04T03:26:16;3.23;;;1.87;;
7027;SDS011;3555;53.248;10.336;2023-01-04T03:29:05;5.23;;;1.87;;
7027;SDS011;3555;53.248;10.336;2023-01-04T03:31:54;3.40;;;1.60;;
7027;SDS011;3555;53.248;10.336;2023-01-04T03:34:41;3.57;;;1.80;;
7027;SDS011;3555;53.248;10.336;2023-01-04T03:37:29;5.70;;;1.80;;
7027;SDS011;3555;53.248;10.336;2023-01-04T03:40:03;3.07;;;1.67;;
7027;SDS011;3555;53.248;10.336;2023-01-04T03:43:02;5.83;;;1.70;;
7027;SDS011;3555;53.248;10.336;2023-01-04T03:45:52;3.23;;;1.70;;
7027;SDS011;3555;53.248;10.336;2023-01-04T03:48:42;4.53;;;1.87;;
7027;SDS011;3555;53.248;10.336;2023-01-04T03:51:12;3.77;;;1.60;;
7027;SDS011;3555;53.248;10.336;2023-01-04T03:53:46;4.50;;;1.70;;
7027;SDS011;3555;53.248;10.336;2023-01-04T03:56:21;3.90;;;2.03;;
7027;SDS011;3555;53.248;10.336;2023-01-04T03:58:49;3.87;;;1.93;;
7027;SDS011;3555;53.248;10.336;2023-01-04T04:01:18;4.13;;;1.87;;
7027;SDS011;3555;53.248;10.336;2023-01-04T04:03:46;6.07;;;1.73;;
7027;SDS011;3555;53.248;10.336;2023-01-04T04:06:31;3.77;;;1.47;;
7027;SDS011;3555;53.248;10.336;2023-01-04T04:09:16;2.57;;;1.73;;
7027;SDS011;3555;53.248;10.336;2023-01-04T04:11:43;3.23;;;2.33;;
7027;SDS011;3555;53.248;10.336;2023-01-04T04:14:10;5.73;;;1.93;;
7027;SDS011;3555;53.248;10.336;2023-01-04T04:16:37;4.97;;;2.23;;
7027;SDS011;3555;53.248;10.336;2023-01-04T04:19:04;3.80;;;1.83;;
7027;SDS011;3555;53.248;10.336;2023-01-04T04:21:31;4.13;;;2.20;;
7027;SDS011;3555;53.248;10.336;2023-01-04T04:23:58;4.77;;;2.13;;
7027;SDS011;3555;53.248;10.336;2023-01-04T04:26:26;5.10;;;2.00;;
7027;SDS011;3555;53.248;10.336;2023-01-04T04:28:53;3.70;;;1.83;;
7027;SDS011;3555;53.248;10.336;2023-01-04T04:31:20;6.80;;;1.83;;
7027;SDS011;3555;53.248;10.336;2023-01-04T04:33:46;4.97;;;2.00;;
7027;SDS011;3555;53.248;10.336;2023-01-04T04:36:13;3.13;;;1.73;;
7027;SDS011;3555;53.248;10.336;2023-01-04T04:38:40;4.70;;;1.97;;
7027;SDS011;3555;53.248;10.336;2023-01-04T04:41:07;4.07;;;1.87;;
7027;SDS011;3555;53.248;10.336;2023-01-04T04:43:54;4.43;;;1.80;;
7027;SDS011;3555;53.248;10.336;2023-01-04T04:46:22;3.47;;;2.00;;
7027;SDS011;3555;53.248;10.336;2023-01-04T04:48:49;3.87;;;2.07;;
7027;SDS011;3555;53.248;10.336;2023-01-04T04:51:16;4.33;;;1.90;;
7027;SDS011;3555;53.248;10.336;2023-01-04T04:53:43;4.93;;;2.13;;
7027;SDS011;3555;53.248;10.336;2023-01-04T04:56:10;4.53;;;2.13;;
7027;SDS011;3555;53.248;10.336;2023-01-04T04:58:37;6.27;;;2.30;;
7027;SDS011;3555;53.248;10.336;2023-01-04T05:01:06;3.40;;;2.60;;
7027;SDS011;3555;53.248;10.336;2023-01-04T05:03:33;4.33;;;2.87;;
7027;SDS011;3555;53.248;10.336;2023-01-04T05:06:00;7.50;;;2.47;;
7027;SDS011;3555;53.248;10.336;2023-01-04T05:08:28;3.57;;;2.03;;
7027;SDS011;3555;53.248;10.336;2023-01-04T05:10:55;4.60;;;2.50;;
7027;SDS011;3555;53.248;10.336;2023-01-04T05:13:22;6.67;;;2.33;;
7027;SDS011;3555;53.248;10.336;2023-01-04T05:15:48;9.83;;;3.50;;
7027;SDS011;3555;53.248;10.336;2023-01-04T05:18:20;5.60;;;2.50;;
7027;SDS011;3555;53.248;10.336;2023-01-04T05:20:48;6.50;;;2.60;;
7027;SDS011;3555;53.248;10.336;2023-01-04T05:23:16;7.53;;;3.10;;
7027;SDS011;3555;53.248;10.336;2023-01-04T05:25:44;5.73;;;2.47;;
7027;SDS011;3555;53.248;10.336;2023-01-04T05:28:11;6.63;;;2.90;;
7027;SDS011;3555;53.248;10.336;2023-01-04T05:30:38;4.60;;;2.60;;
7027;SDS011;3555;53.248;10.336;2023-01-04T05:33:16;5.67;;;3.10;;
7027;SDS011;3555;53.248;10.336;2023-01-04T05:35:46;5.30;;;2.80;;
7027;SDS011;3555;53.248;10.336;2023-01-04T05:38:13;5.50;;;2.80;;
7027;SDS011;3555;53.248;10.336;2023-01-04T05:40:40;4.40;;;2.63;;
7027;SDS011;3555;53.248;10.336;2023-01-04T05:43:07;6.13;;;3.17;;
7027;SDS011;3555;53.248;10.336;2023-01-04T05:45:34;5.27;;;3.00;;
7027;SDS011;3555;53.248;10.336;2023-01-04T05:48:02;5.07;;;2.73;;
7027;SDS011;3555;53.248;10.336;2023-01-04T05:50:29;5.27;;;2.60;;
7027;SDS011;3555;53.248;10.336;2023-01-04T05:52:57;3.70;;;2.70;;
7027;SDS011;3555;53.248;10.336;2023-01-04T05:55:24;4.97;;;2.47;;
7027;SDS011;3555;53.248;10.336;2023-01-04T05:57:52;7.93;;;2.50;;
7027;SDS011;3555;53.248;10.336;2023-01-04T06:00:19;6.57;;;2.67;;
7027;SDS011;3555;53.248;10.336;2023-01-04T06:02:46;7.10;;;2.20;;
7027;SDS011;3555;53.248;10.336;2023-01-04T06:05:13;3.60;;;2.90;;
7027;SDS011;3555;53.248;10.336;2023-01-04T06:07:40;7.33;;;2.27;;
7027;SDS011;3555;53.248;10.336;2023-01-04T06:10:09;3.63;;;2.23;;
7027;SDS011;3555;53.248;10.336;2023-01-04T06:12:37;2.40;;;2.10;;
7027;SDS011;3555;53.248;10.336;2023-01-04T06:15:04;3.27;;;2.10;;
7027;SDS011;3555;53.248;10.336;2023-01-04T06:17:33;4.23;;;2.17;;
7027;SDS011;3555;53.248;10.336;2023-01-04T06:20:00;3.33;;;2.00;;
7027;SDS011;3555;53.248;10.336;2023-01-04T06:22:28;3.43;;;2.30;;
7027;SDS011;3555;53.248;10.336;2023-01-04T06:24:56;2.40;;;2.20;;
7027;SDS011;3555;53.248;10.336;2023-01-04T06:27:25;3.33;;;2.17;;
7027;SDS011;3555;53.248;10.336;2023-01-04T06:29:51;2.47;;;1.90;;
7027;SDS011;3555;53.248;10.336;2023-01-04T06:32:19;3.43;;;1.93;;
7027;SDS011;3555;53.248;10.336;2023-01-04T06:34:45;4.37;;;2.10;;
7027;SDS011;3555;53.248;10.336;2023-01-04T06:37:12;3.37;;;1.87;;
7027;SDS011;3555;53.248;10.336;2023-01-04T06:39:39;2.20;;;1.90;;
7027;SDS011;3555;53.248;10.336;2023-01-04T06:42:06;2.27;;;1.90;;
7027;SDS011;3555;53.248;10.336;2023-01-04T06:44:55;5.80;;;2.20;;
7027;SDS011;3555;53.248;10.336;2023-01-04T06:47:22;2.67;;;1.90;;
7027;SDS011;3555;53.248;10.336;2023-01-04T06:49:49;3.70;;;1.90;;
7027;SDS011;3555;53.248;10.336;2023-01-04T06:52:16;2.23;;;2.03;;
7027;SDS011;3555;53.248;10.336;2023-01-04T06:54:43;6.13;;;2.63;;
7027;SDS011;3555;53.248;10.336;2023-01-04T06:57:10;5.30;;;2.03;;
7027;SDS011;3555;53.248;10.336;2023-01-04T06:59:37;3.03;;;2.00;;
7027;SDS011;3555;53.248;10.336;2023-01-04T07:02:05;2.20;;;1.90;;
7027;SDS011;3555;53.248;10.336;2023-01-04T07:04:32;4.10;;;2.00;;
7027;SDS011;3555;53.248;10.336;2023-01-04T07:06:59;3.60;;;2.00;;
7027;SDS011;3555;53.248;10.336;2023-01-04T07:09:26;3.70;;;2.00;;
7027;SDS011;3555;53.248;10.336;2023-01-04T07:11:53;2.97;;;1.90;;
7027;SDS011;3555;53.248;10.336;2023-01-04T07:14:21;4.07;;;1.70;;
7027;SDS011;3555;53.248;10.336;2023-01-04T07:16:48;2.90;;;1.90;;
7027;SDS011;3555;53.248;10.336;2023-01-04T07:19:16;4.07;;;1.93;;
7027;SDS011;3555;53.248;10.336;2023-01-04T07:21:43;4.00;;;2.10;;
7027;SDS011;3555;53.248;10.336;2023-01-04T07:24:10;3.10;;;1.80;;
7027;SDS011;3555;53.248;10.336;2023-01-04T07:26:37;2.37;;;1.73;;
7027;SDS011;3555;53.248;10.336;2023-01-04T07:29:04;2.37;;;1.93;;
7027;SDS011;3555;53.248;10.336;2023-01-04T07:31:41;3.90;;;2.17;;
7027;SDS011;3555;53.248;10.336;2023-01-04T07:34:09;3.93;;;2.33;;
7027;SDS011;3555;53.248;10.336;2023-01-04T07:36:37;1.60;;;1.50;;
7027;SDS011;3555;53.248;10.336;2023-01-04T07:39:05;3.30;;;1.90;;
7027;SDS011;3555;53.248;10.336;2023-01-04T07:41:34;3.07;;;1.80;;
7027;SDS011;3555;53.248;10.336;2023-01-04T07:44:01;2.67;;;1.90;;
7027;SDS011;3555;53.248;10.336;2023-01-04T07:46:28;2.20;;;1.70;;
7027;SDS011;3555;53.248;10.336;2023-01-04T07:48:55;2.27;;;1.57;;
7027;SDS011;3555;53.248;10.336;2023-01-04T07:51:22;3.20;;;1.70;;
7027;SDS011;3555;53.248;10.336;2023-01-04T07:53:50;2.17;;;1.97;;
7027;SDS011;3555;53.248;10.336;2023-01-04T07:56:17;2.73;;;2.07;;
7027;SDS011;3555;53.248;10.336;2023-01-04T07:58:44;2.60;;;2.10;;
7027;SDS011;3555;53.248;10.336;2023-01-04T08:01:11;3.23;;;2.30;;
7027;SDS011;3555;53.248;10.336;2023-01-04T08:03:40;2.87;;;2.20;;
7027;SDS011;3555;53.248;10.336;2023-01-04T08:06:08;3.83;;;2.60;;
7027;SDS011;3555;53.248;10.336;2023-01-04T08:08:35;2.43;;;2.07;;
7027;SDS011;3555;53.248;10.336;2023-01-04T08:11:04;3.30;;;2.40;;
7027;SDS011;3555;53.248;10.336;2023-01-04T08:13:32;4.53;;;2.73;;
7027;SDS011;3555;53.248;10.336;2023-01-04T08:15:59;3.33;;;2.67;;
7027;SDS011;3555;53.248;10.336;2023-01-04T08:18:26;3.40;;;2.63;;
7027;SDS011;3555;53.248;10.336;2023-01-04T08:21:00;3.47;;;2.77;;
7027;SDS011;3555;53.248;10.336;2023-01-04T08:23:27;6.10;;;2.70;;
7027;SDS011;3555;53.248;10.336;2023-01-04T08:25:54;3.23;;;2.40;;
7027;SDS011;3555;53.248;10.336;2023-01-04T08:28:22;3.93;;;2.73;;
7027;SDS011;3555;53.248;10.336;2023-01-04T08:30:49;5.57;;;2.53;;
7027;SDS011;3555;53.248;10.336;2023-01-04T08:33:16;3.63;;;2.57;;
7027;SDS011;3555;53.248;10.336;2023-01-04T08:35:43;2.90;;;2.30;;
7027;SDS011;3555;53.248;10.336;2023-01-04T08:38:10;3.73;;;2.40;;
7027;SDS011;3555;53.248;10.336;2023-01-04T08:40:37;3.40;;;2.40;;
7027;SDS011;3555;53.248;10.336;2023-01-04T08:43:04;2.97;;;2.33;;
7027;SDS011;3555;53.248;10.336;2023-01-04T08:45:32;2.50;;;2.30;;
7027;SDS011;3555;53.248;10.336;2023-01-04T08:47:59;3.17;;;2.10;;
7027;SDS011;3555;53.248;10.336;2023-01-04T08:50:25;2.37;;;2.10;;
7027;SDS011;3555;53.248;10.336;2023-01-04T08:52:52;2.60;;;2.33;;
7027;SDS011;3555;53.248;10.336;2023-01-04T08:55:19;2.60;;;1.97;;
7027;SDS011;3555;53.248;10.336;2023-01-04T08:57:46;2.00;;;1.80;;
7027;SDS011;3555;53.248;10.336;2023-01-04T09:00:13;2.17;;;1.90;;
7027;SDS011;3555;53.248;10.336;2023-01-04T09:02:43;2.20;;;2.00;;
7027;SDS011;3555;53.248;10.336;2023-01-04T09:05:10;2.03;;;1.83;;
7027;SDS011;3555;53.248;10.336;2023-01-04T09:07:37;2.23;;;1.97;;
7027;SDS011;3555;53.248;10.336;2023-01-04T09:10:04;3.23;;;2.00;;
7027;SDS011;3555;53.248;10.336;2023-01-04T09:12:31;2.33;;;2.13;;
7027;SDS011;3555;53.248;10.336;2023-01-04T09:14:58;2.67;;;2.00;;
7027;SDS011;3555;53.248;10.336;2023-01-04T09:17:25;2.37;;;2.17;;
7027;SDS011;3555;53.248;10.336;2023-01-04T09:19:53;2.50;;;2.30;;
7027;SDS011;3555;53.248;10.336;2023-01-04T09:22:20;2.63;;;2.30;;
7027;SDS011;3555;53.248;10.336;2023-01-04T09:24:47;2.50;;;2.30;;
7027;SDS011;3555;53.248;10.336;2023-01-04T09:27:14;3.67;;;2.20;;
7027;SDS011;3555;53.248;10.336;2023-01-04T09:29:41;2.90;;;2.70;;
7027;SDS011;3555;53.248;10.336;2023-01-04T09:32:07;3.13;;;2.83;;
7027;SDS011;3555;53.248;10.336;2023-01-04T09:34:34;3.00;;;2.70;;
7027;SDS011;3555;53.248;10.336;2023-01-04T09:37:02;5.37;;;2.93;;
7027;SDS011;3555;53.248;10.336;2023-01-04T09:39:29;3.53;;;2.93;;
7027;SDS011;3555;53.248;10.336;2023-01-04T09:41:56;3.30;;;3.00;;
7027;SDS011;3555;53.248;10.336;2023-01-04T09:44:28;3.10;;;2.80;;
7027;SDS011;3555;53.248;10.336;2023-01-04T09:47:02;2.83;;;2.60;;
7027;SDS011;3555;53.248;10.336;2023-01-04T09:49:34;2.90;;;2.60;;
7027;SDS011;3555;53.248;10.336;2023-01-04T09:52:09;3.43;;;2.80;;
7027;SDS011;3555;53.248;10.336;2023-01-04T09:54:42;3.20;;;2.90;;
7027;SDS011;3555;53.248;10.336;2023-01-04T09:57:15;3.20;;;2.90;;
7027;SDS011;3555;53.248;10.336;2023-01-04T09:59:49;3.30;;;3.00;;
7027;SDS011;3555;53.248;10.336;2023-01-04T10:02:20;3.20;;;2.90;;
7027;SDS011;3555;53.248;10.336;2023-01-04T10:04:51;4.13;;;2.93;;
7027;SDS011;3555;53.248;10.336;2023-01-04T10:07:22;4.03;;;2.90;;
7027;SDS011;3555;53.248;10.336;2023-01-04T10:09:52;2.93;;;2.60;;
7027;SDS011;3555;53.248;10.336;2023-01-04T10:12:31;4.57;;;2.70;;
7027;SDS011;3555;53.248;10.336;2023-01-04T10:15:10;2.90;;;2.70;;
7027;SDS011;3555;53.248;10.336;2023-01-04T10:17:51;3.20;;;2.90;;
7027;SDS011;3555;53.248;10.336;2023-01-04T10:23:31;4.27;;;2.50;;
7027;SDS011;3555;53.248;10.336;2023-01-04T10:26:09;2.40;;;2.20;;
7027;SDS011;3555;53.248;10.336;2023-01-04T10:28:42;2.47;;;2.23;;
7027;SDS011;3555;53.248;10.336;2023-01-04T10:31:18;2.27;;;2.07;;
7027;SDS011;3555;53.248;10.336;2023-01-04T10:33:49;2.20;;;1.90;;
7027;SDS011;3555;53.248;10.336;2023-01-04T10:36:27;2.23;;;1.70;;
7027;SDS011;3555;53.248;10.336;2023-01-04T10:38:58;1.50;;;1.40;;
7027;SDS011;3555;53.248;10.336;2023-01-04T10:41:28;1.97;;;1.73;;
7027;SDS011;3555;53.248;10.336;2023-01-04T10:44:02;1.90;;;1.70;;
7027;SDS011;3555;53.248;10.336;2023-01-04T10:46:34;2.13;;;1.60;;
7027;SDS011;3555;53.248;10.336;2023-01-04T10:49:09;1.83;;;1.70;;
7027;SDS011;3555;53.248;10.336;2023-01-04T10:51:40;1.80;;;1.70;;
7027;SDS011;3555;53.248;10.336;2023-01-04T10:54:15;2.80;;;1.40;;
7027;SDS011;3555;53.248;10.336;2023-01-04T10:56:51;1.87;;;1.77;;
7027;SDS011;3555;53.248;10.336;2023-01-04T10:59:25;1.90;;;1.70;;
7027;SDS011;3555;53.248;10.336;2023-01-04T11:02:00;2.60;;;1.80;;
7027;SDS011;3555;53.248;10.336;2023-01-04T11:04:32;1.70;;;1.60;;
7027;SDS011;3555;53.248;10.336;2023-01-04T11:07:04;2.80;;;1.80;;
7027;SDS011;3555;53.248;10.336;2023-01-04T11:09:41;1.80;;;1.70;;
7027;SDS011;3555;53.248;10.336;2023-01-04T11:12:12;2.00;;;1.90;;
7027;SDS011;3555;53.248;10.336;2023-01-04T11:14:40;3.60;;;1.90;;
7027;SDS011;3555;53.248;10.336;2023-01-04T11:17:08;1.73;;;1.63;;
7027;SDS011;3555;53.248;10.336;2023-01-04T11:19:36;1.80;;;1.70;;
7027;SDS011;3555;53.248;10.336;2023-01-04T11:22:05;3.40;;;1.90;;
7027;SDS011;3555;53.248;10.336;2023-01-04T11:24:40;1.60;;;1.50;;
7027;SDS011;3555;53.248;10.336;2023-01-04T11:27:10;1.90;;;1.70;;
7027;SDS011;3555;53.248;10.336;2023-01-04T11:29:43;2.00;;;1.80;;
7027;SDS011;3555;53.248;10.336;2023-01-04T11:32:16;1.90;;;1.80;;
7027;SDS011;3555;53.248;10.336;2023-01-04T11:34:50;2.03;;;1.77;;
7027;SDS011;3555;53.248;10.336;2023-01-04T11:37:25;1.70;;;1.60;;
7027;SDS011;3555;53.248;10.336;2023-01-04T11:40:17;1.77;;;1.67;;
7027;SDS011;3555;53.248;10.336;2023-01-04T11:42:46;1.50;;;1.40;;
7027;SDS011;3555;53.248;10.336;2023-01-04T11:45:18;1.67;;;1.57;;
7027;SDS011;3555;53.248;10.336;2023-01-04T11:47:49;1.70;;;1.60;;
7027;SDS011;3555;53.248;10.336;2023-01-04T11:50:34;1.70;;;1.60;;
7027;SDS011;3555;53.248;10.336;2023-01-04T11:53:20;1.60;;;1.50;;
7027;SDS011;3555;53.248;10.336;2023-01-04T11:55:49;1.70;;;1.50;;
7027;SDS011;3555;53.248;10.336;2023-01-04T11:58:16;1.40;;;1.30;;
7027;SDS011;3555;53.248;10.336;2023-01-04T12:00:48;2.53;;;1.50;;
7027;SDS011;3555;53.248;10.336;2023-01-04T12:03:16;1.50;;;1.40;;
7027;SDS011;3555;53.248;10.336;2023-01-04T12:05:49;1.30;;;1.20;;
7027;SDS011;3555;53.248;10.336;2023-01-04T12:08:19;1.47;;;1.37;;
7027;SDS011;3555;53.248;10.336;2023-01-04T12:10:55;1.50;;;1.40;;
7027;SDS011;3555;53.248;10.336;2023-01-04T12:13:24;1.57;;;1.40;;
7027;SDS011;3555;53.248;10.336;2023-01-04T12:15:55;1.60;;;1.50;;
7027;SDS011;3555;53.248;10.336;2023-01-04T12:18:29;1.37;;;1.27;;
7027;SDS011;3555;53.248;10.336;2023-01-04T12:21:01;1.30;;;1.20;;
7027;SDS011;3555;53.248;10.336;2023-01-04T12:23:28;1.57;;;1.47;;
7027;SDS011;3555;53.248;10.336;2023-01-04T12:25:57;1.40;;;1.30;;
7027;SDS011;3555;53.248;10.336;2023-01-04T12:28:27;1.80;;;1.70;;
7027;SDS011;3555;53.248;10.336;2023-01-04T12:33:55;1.30;;;1.20;;
7027;SDS011;3555;53.248;10.336;2023-01-04T12:39:25;4.07;;;1.30;;
7027;SDS011;3555;53.248;10.336;2023-01-04T12:47:51;1.40;;;1.30;;
7027;SDS011;3555;53.248;10.336;2023-01-04T12:53:50;1.30;;;1.20;;
7027;SDS011;3555;53.248;10.336;2023-01-04T12:56:22;1.20;;;1.10;;
7027;SDS011;3555;53.248;10.336;2023-01-04T12:59:32;1.30;;;1.20;;
7027;SDS011;3555;53.248;10.336;2023-01-04T13:02:08;2.40;;;1.40;;
7027;SDS011;3555;53.248;10.336;2023-01-04T13:04:41;1.37;;;1.27;;
7027;SDS011;3555;53.248;10.336;2023-01-04T13:07:09;1.30;;;1.20;;
7027;SDS011;3555;53.248;10.336;2023-01-04T13:09:44;1.30;;;1.20;;
7027;SDS011;3555;53.248;10.336;2023-01-04T13:12:32;1.10;;;1.00;;
7027;SDS011;3555;53.248;10.336;2023-01-04T13:15:11;1.20;;;1.10;;
7027;SDS011;3555;53.248;10.336;2023-01-04T13:17:45;1.30;;;1.20;;
7027;SDS011;3555;53.248;10.336;2023-01-04T13:20:14;1.10;;;1.00;;
7027;SDS011;3555;53.248;10.336;2023-01-04T13:22:45;1.30;;;1.20;;
7027;SDS011;3555;53.248;10.336;2023-01-04T13:25:17;1.30;;;1.10;;
7027;SDS011;3555;53.248;10.336;2023-01-04T13:27:55;1.27;;;1.10;;
7027;SDS011;3555;53.248;10.336;2023-01-04T13:30:28;1.73;;;1.20;;
7027;SDS011;3555;53.248;10.336;2023-01-04T13:32:56;1.40;;;1.30;;
7027;SDS011;3555;53.248;10.336;2023-01-04T13:35:24;1.20;;;1.10;;
7027;SDS011;3555;53.248;10.336;2023-01-04T13:37:51;1.93;;;1.20;;
7027;SDS011;3555;53.248;10.336;2023-01-04T13:40:22;1.30;;;1.10;;
7027;SDS011;3555;53.248;10.336;2023-01-04T13:42:53;1.87;;;1.20;;
7027;SDS011;3555;53.248;10.336;2023-01-04T13:45:49;1.80;;;0.90;;
7027;SDS011;3555;53.248;10.336;2023-01-04T13:48:24;1.00;;;0.90;;
7027;SDS011;3555;53.248;10.336;2023-01-04T13:50:57;1.33;;;1.00;;
7027;SDS011;3555;53.248;10.336;2023-01-04T13:53:26;2.30;;;1.10;;
7027;SDS011;3555;53.248;10.336;2023-01-04T13:55:55;0.80;;;0.80;;
7027;SDS011;3555;53.248;10.336;2023-01-04T13:58:23;1.47;;;0.90;;
7027;SDS011;3555;53.248;10.336;2023-01-04T14:00:53;1.10;;;0.80;;
7027;SDS011;3555;53.248;10.336;2023-01-04T14:03:24;1.43;;;0.73;;
7027;SDS011;3555;53.248;10.336;2023-01-04T14:05:57;1.00;;;0.70;;
7027;SDS011;3555;53.248;10.336;2023-01-04T14:08:36;2.10;;;0.93;;
7027;SDS011;3555;53.248;10.336;2023-01-04T14:11:11;1.17;;;1.07;;
7027;SDS011;3555;53.248;10.336;2023-01-04T14:14:01;1.57;;;1.03;;
7027;SDS011;3555;53.248;10.336;2023-01-04T14:16:30;2.37;;;1.10;;
7027;SDS011;3555;53.248;10.336;2023-01-04T14:18:57;2.50;;;1.00;;
7027;SDS011;3555;53.248;10.336;2023-01-04T14:21:31;1.00;;;0.90;;
7027;SDS011;3555;53.248;10.336;2023-01-04T14:24:00;1.67;;;1.10;;
7027;SDS011;3555;53.248;10.336;2023-01-04T14:26:32;1.20;;;1.10;;
7027;SDS011;3555;53.248;10.336;2023-01-04T14:31:49;1.20;;;1.10;;
7027;SDS011;3555;53.248;10.336;2023-01-04T14:34:16;1.27;;;1.10;;
7027;SDS011;3555;53.248;10.336;2023-01-04T14:36:43;1.40;;;1.00;;
7027;SDS011;3555;53.248;10.336;2023-01-04T14:39:17;2.63;;;0.97;;
7027;SDS011;3555;53.248;10.336;2023-01-04T14:41:56;1.50;;;1.40;;
7027;SDS011;3555;53.248;10.336;2023-01-04T14:44:26;1.40;;;1.03;;
7027;SDS011;3555;53.248;10.336;2023-01-04T14:46:57;2.50;;;2.00;;
7027;SDS011;3555;53.248;10.336;2023-01-04T14:49:28;1.00;;;0.90;;
7027;SDS011;3555;53.248;10.336;2023-01-04T14:51:55;0.93;;;0.83;;
7027;SDS011;3555;53.248;10.336;2023-01-04T14:54:24;1.20;;;0.80;;
7027;SDS011;3555;53.248;10.336;2023-01-04T14:56:53;0.97;;;0.80;;
7027;SDS011;3555;53.248;10.336;2023-01-04T14:59:21;2.97;;;0.87;;
7027;SDS011;3555;53.248;10.336;2023-01-04T15:01:48;0.90;;;0.70;;
7027;SDS011;3555;53.248;10.336;2023-01-04T15:04:17;1.90;;;0.80;;
7027;SDS011;3555;53.248;10.336;2023-01-04T15:06:48;1.20;;;0.70;;
7027;SDS011;3555;53.248;10.336;2023-01-04T15:09:16;0.80;;;0.60;;
7027;SDS011;3555;53.248;10.336;2023-01-04T15:11:43;1.53;;;1.00;;
7027;SDS011;3555;53.248;10.336;2023-01-04T15:14:10;1.13;;;0.80;;
7027;SDS011;3555;53.248;10.336;2023-01-04T15:16:37;1.63;;;0.90;;
7027;SDS011;3555;53.248;10.336;2023-01-04T15:19:04;1.83;;;1.00;;
7027;SDS011;3555;53.248;10.336;2023-01-04T15:21:32;1.37;;;0.90;;
7027;SDS011;3555;53.248;10.336;2023-01-04T15:23:59;1.37;;;0.70;;
7027;SDS011;3555;53.248;10.336;2023-01-04T15:26:27;1.00;;;0.80;;
7027;SDS011;3555;53.248;10.336;2023-01-04T15:28:54;1.23;;;0.80;;
7027;SDS011;3555;53.248;10.336;2023-01-04T15:31:22;1.77;;;0.80;;
7027;SDS011;3555;53.248;10.336;2023-01-04T15:33:49;2.27;;;0.90;;
7027;SDS011;3555;53.248;10.336;2023-01-04T15:36:16;3.27;;;0.93;;
7027;SDS011;3555;53.248;10.336;2023-01-04T15:38:45;2.47;;;0.80;;
7027;SDS011;3555;53.248;10.336;2023-01-04T15:41:13;3.13;;;1.33;;
7027;SDS011;3555;53.248;10.336;2023-01-04T15:44:01;4.30;;;1.27;;
7027;SDS011;3555;53.248;10.336;2023-01-04T15:46:27;3.73;;;1.10;;
7027;SDS011;3555;53.248;10.336;2023-01-04T15:48:54;4.10;;;1.20;;
7027;SDS011;3555;53.248;10.336;2023-01-04T15:51:21;5.00;;;1.30;;
7027;SDS011;3555;53.248;10.336;2023-01-04T15:53:50;5.73;;;1.40;;
7027;SDS011;3555;53.248;10.336;2023-01-04T15:56:17;4.60;;;1.60;;